sensor_id;sensor_type;location;lat;lon;timestamp;P1;durP1;ratioP1;P2;durP2;ratioP2
15496;SDS011;7850;52.204;5.942;2022-09-21T00:02:41;0.30;;;0.30;;
15496;SDS011;7850;52.204;5.942;2022-09-21T00:02:41;0.30;;;0.30;;
15496;SDS011;7850;52.204;5.942;2022-09-21T00:02:41;0.30;;;0.30;;
15496;SDS011;7850;52.204;5.942;2022-09-21T00:03:04;0.30;;;0.30;;
15496;SDS011;7850;52.204;5.942;2022-09-21T00:04:04;0.27;;;0.27;;
15496;SDS011;7850;52.204;5.942;2022-09-21T00:05:05;0.20;;;0.20;;
15496;SDS011;7850;52.204;5.942;2022-09-21T00:06:05;0.20;;;0.20;;
15496;SDS011;7850;52.204;5.942;2022-09-21T00:07:04;0.23;;;0.23;;
15496;SDS011;7850;52.204;5.942;2022-09-21T00:08:05;0.29;;;0.29;;
15496;SDS011;7850;52.204;5.942;2022-09-21T00:09:04;0.27;;;0.27;;
15496;SDS011;7850;52.204;5.942;2022-09-21T00:10:05;0.20;;;0.20;;
15496;SDS011;7850;52.204;5.942;2022-09-21T00:11:05;0.20;;;0.20;;
15496;SDS011;7850;52.204;5.942;2022-09-21T00:12:05;0.25;;;0.25;;
15496;SDS011;7850;52.204;5.942;2022-09-21T00:13:05;0.20;;;0.20;;
15496;SDS011;7850;52.204;5.942;2022-09-21T00:14:06;0.20;;;0.20;;
15496;SDS011;7850;52.204;5.942;2022-09-21T00:15:06;0.20;;;0.20;;
15496;SDS011;7850;52.204;5.942;2022-09-21T00:16:05;0.20;;;0.20;;
15496;SDS011;7850;52.204;5.942;2022-09-21T00:17:05;0.20;;;0.20;;
15496;SDS011;7850;52.204;5.942;2022-09-21T00:18:05;0.20;;;0.20;;
15496;SDS011;7850;52.204;5.942;2022-09-21T00:19:05;0.20;;;0.20;;
15496;SDS011;7850;52.204;5.942;2022-09-21T00:20:05;0.20;;;0.20;;
15496;SDS011;7850;52.204;5.942;2022-09-21T00:21:06;0.20;;;0.20;;
15496;SDS011;7850;52.204;5.942;2022-09-21T00:22:05;0.20;;;0.20;;
15496;SDS011;7850;52.204;5.942;2022-09-21T00:23:05;0.20;;;0.20;;
15496;SDS011;7850;52.204;5.942;2022-09-21T00:24:05;0.20;;;0.20;;
15496;SDS011;7850;52.204;5.942;2022-09-21T00:25:06;0.20;;;0.20;;
15496;SDS011;7850;52.204;5.942;2022-09-21T00:26:06;0.20;;;0.20;;
15496;SDS011;7850;52.204;5.942;2022-09-21T00:27:06;0.20;;;0.20;;
15496;SDS011;7850;52.204;5.942;2022-09-21T00:28:06;0.20;;;0.20;;
15496;SDS011;7850;52.204;5.942;2022-09-21T00:29:06;0.20;;;0.20;;
15496;SDS011;7850;52.204;5.942;2022-09-21T00:30:06;0.20;;;0.20;;
15496;SDS011;7850;52.204;5.942;2022-09-21T00:31:07;0.20;;;0.20;;
15496;SDS011;7850;52.204;5.942;2022-09-21T00:32:06;0.20;;;0.20;;
15496;SDS011;7850;52.204;5.942;2022-09-21T00:33:06;0.20;;;0.20;;
15496;SDS011;7850;52.204;5.942;2022-09-21T00:34:06;0.20;;;0.20;;
15496;SDS011;7850;52.204;5.942;2022-09-21T00:35:07;0.20;;;0.20;;
15496;SDS011;7850;52.204;5.942;2022-09-21T00:36:07;0.20;;;0.20;;
15496;SDS011;7850;52.204;5.942;2022-09-21T00:37:06;0.12;;;0.12;;
15496;SDS011;7850;52.204;5.942;2022-09-21T00:38:06;0.20;;;0.20;;
15496;SDS011;7850;52.204;5.942;2022-09-21T00:39:08;0.20;;;0.20;;
15496;SDS011;7850;52.204;5.942;2022-09-21T00:40:07;0.20;;;0.20;;
15496;SDS011;7850;52.204;5.942;2022-09-21T00:41:07;0.20;;;0.20;;
15496;SDS011;7850;52.204;5.942;2022-09-21T00:42:07;0.20;;;0.20;;
15496;SDS011;7850;52.204;5.942;2022-09-21T00:43:11;0.20;;;0.20;;
15496;SDS011;7850;52.204;5.942;2022-09-21T00:44:20;0.20;;;0.20;;
15496;SDS011;7850;52.204;5.942;2022-09-21T00:45:09;0.20;;;0.20;;
15496;SDS011;7850;52.204;5.942;2022-09-21T00:46:10;0.20;;;0.20;;
15496;SDS011;7850;52.204;5.942;2022-09-21T00:47:08;0.20;;;0.20;;
15496;SDS011;7850;52.204;5.942;2022-09-21T00:48:07;0.20;;;0.20;;
15496;SDS011;7850;52.204;5.942;2022-09-21T00:49:07;0.20;;;0.20;;
15496;SDS011;7850;52.204;5.942;2022-09-21T00:50:08;0.22;;;0.22;;
15496;SDS011;7850;52.204;5.942;2022-09-21T00:51:07;0.20;;;0.20;;
15496;SDS011;7850;52.204;5.942;2022-09-21T00:52:07;0.20;;;0.20;;
15496;SDS011;7850;52.204;5.942;2022-09-21T00:53:07;0.20;;;0.20;;
15496;SDS011;7850;52.204;5.942;2022-09-21T00:54:08;0.20;;;0.20;;
15496;SDS011;7850;52.204;5.942;2022-09-21T00:55:08;0.20;;;0.20;;
15496;SDS011;7850;52.204;5.942;2022-09-21T00:56:07;0.20;;;0.20;;
15496;SDS011;7850;52.204;5.942;2022-09-21T00:57:07;0.20;;;0.20;;
15496;SDS011;7850;52.204;5.942;2022-09-21T00:58:09;0.24;;;0.24;;
15496;SDS011;7850;52.204;5.942;2022-09-21T00:59:08;0.20;;;0.20;;
15496;SDS011;7850;52.204;5.942;2022-09-21T01:00:08;0.20;;;0.20;;
15496;SDS011;7850;52.204;5.942;2022-09-21T01:01:08;0.21;;;0.21;;
15496;SDS011;7850;52.204;5.942;2022-09-21T01:02:08;0.24;;;0.24;;
15496;SDS011;7850;52.204;5.942;2022-09-21T01:03:08;0.20;;;0.20;;
15496;SDS011;7850;52.204;5.942;2022-09-21T01:04:08;0.20;;;0.20;;
15496;SDS011;7850;52.204;5.942;2022-09-21T01:05:08;0.20;;;0.20;;
15496;SDS011;7850;52.204;5.942;2022-09-21T01:06:08;0.20;;;0.20;;
15496;SDS011;7850;52.204;5.942;2022-09-21T01:07:09;0.20;;;0.20;;
15496;SDS011;7850;52.204;5.942;2022-09-21T01:08:08;0.28;;;0.28;;
15496;SDS011;7850;52.204;5.942;2022-09-21T01:09:08;0.20;;;0.20;;
15496;SDS011;7850;52.204;5.942;2022-09-21T01:10:09;0.20;;;0.20;;
15496;SDS011;7850;52.204;5.942;2022-09-21T01:11:20;0.20;;;0.20;;
15496;SDS011;7850;52.204;5.942;2022-09-21T01:12:12;0.20;;;0.20;;
15496;SDS011;7850;52.204;5.942;2022-09-21T01:13:17;0.20;;;0.20;;
15496;SDS011;7850;52.204;5.942;2022-09-21T01:14:12;0.20;;;0.20;;
15496;SDS011;7850;52.204;5.942;2022-09-21T01:15:13;0.20;;;0.20;;
15496;SDS011;7850;52.204;5.942;2022-09-21T01:16:10;0.20;;;0.20;;
15496;SDS011;7850;52.204;5.942;2022-09-21T01:17:10;0.20;;;0.20;;
15496;SDS011;7850;52.204;5.942;2022-09-21T01:18:11;0.21;;;0.21;;
15496;SDS011;7850;52.204;5.942;2022-09-21T01:19:13;0.20;;;0.20;;
15496;SDS011;7850;52.204;5.942;2022-09-21T01:20:22;0.20;;;0.20;;
15496;SDS011;7850;52.204;5.942;2022-09-21T01:21:14;0.20;;;0.20;;
15496;SDS011;7850;52.204;5.942;2022-09-21T01:22:11;0.20;;;0.20;;
15496;SDS011;7850;52.204;5.942;2022-09-21T01:23:14;0.20;;;0.20;;
15496;SDS011;7850;52.204;5.942;2022-09-21T01:24:19;0.20;;;0.20;;
15496;SDS011;7850;52.204;5.942;2022-09-21T01:25:11;0.20;;;0.20;;
15496;SDS011;7850;52.204;5.942;2022-09-21T01:26:12;0.18;;;0.18;;
15496;SDS011;7850;52.204;5.942;2022-09-21T01:27:22;0.20;;;0.20;;
15496;SDS011;7850;52.204;5.942;2022-09-21T01:28:13;0.20;;;0.20;;
15496;SDS011;7850;52.204;5.942;2022-09-21T01:29:12;0.22;;;0.22;;
15496;SDS011;7850;52.204;5.942;2022-09-21T01:30:10;0.26;;;0.26;;
15496;SDS011;7850;52.204;5.942;2022-09-21T01:31:12;0.20;;;0.20;;
15496;SDS011;7850;52.204;5.942;2022-09-21T01:32:10;0.20;;;0.20;;
15496;SDS011;7850;52.204;5.942;2022-09-21T01:33:12;0.20;;;0.20;;
15496;SDS011;7850;52.204;5.942;2022-09-21T01:34:12;0.20;;;0.20;;
15496;SDS011;7850;52.204;5.942;2022-09-21T01:35:11;0.20;;;0.20;;
15496;SDS011;7850;52.204;5.942;2022-09-21T01:36:10;0.20;;;0.20;;
15496;SDS011;7850;52.204;5.942;2022-09-21T01:37:11;0.20;;;0.20;;
15496;SDS011;7850;52.204;5.942;2022-09-21T01:38:11;0.20;;;0.20;;
15496;SDS011;7850;52.204;5.942;2022-09-21T01:39:11;0.20;;;0.20;;
15496;SDS011;7850;52.204;5.942;2022-09-21T01:40:11;0.20;;;0.20;;
15496;SDS011;7850;52.204;5.942;2022-09-21T01:41:11;0.24;;;0.24;;
15496;SDS011;7850;52.204;5.942;2022-09-21T01:42:10;0.20;;;0.20;;
15496;SDS011;7850;52.204;5.942;2022-09-21T01:43:12;0.20;;;0.20;;
15496;SDS011;7850;52.204;5.942;2022-09-21T01:44:11;0.20;;;0.20;;
15496;SDS011;7850;52.204;5.942;2022-09-21T01:45:11;0.20;;;0.20;;
15496;SDS011;7850;52.204;5.942;2022-09-21T01:46:11;0.20;;;0.20;;
15496;SDS011;7850;52.204;5.942;2022-09-21T01:47:11;0.20;;;0.20;;
15496;SDS011;7850;52.204;5.942;2022-09-21T01:48:11;0.20;;;0.20;;
15496;SDS011;7850;52.204;5.942;2022-09-21T01:49:11;0.20;;;0.20;;
15496;SDS011;7850;52.204;5.942;2022-09-21T01:50:11;0.20;;;0.20;;
15496;SDS011;7850;52.204;5.942;2022-09-21T01:51:11;0.20;;;0.20;;
15496;SDS011;7850;52.204;5.942;2022-09-21T01:52:13;0.20;;;0.20;;
15496;SDS011;7850;52.204;5.942;2022-09-21T01:53:12;0.20;;;0.20;;
15496;SDS011;7850;52.204;5.942;2022-09-21T01:54:13;0.20;;;0.20;;
15496;SDS011;7850;52.204;5.942;2022-09-21T01:55:12;0.20;;;0.20;;
15496;SDS011;7850;52.204;5.942;2022-09-21T01:56:12;0.20;;;0.20;;
15496;SDS011;7850;52.204;5.942;2022-09-21T01:57:13;0.22;;;0.22;;
15496;SDS011;7850;52.204;5.942;2022-09-21T01:58:14;0.20;;;0.20;;
15496;SDS011;7850;52.204;5.942;2022-09-21T01:59:13;0.20;;;0.20;;
15496;SDS011;7850;52.204;5.942;2022-09-21T02:00:12;0.20;;;0.20;;
15496;SDS011;7850;52.204;5.942;2022-09-21T02:01:13;0.20;;;0.20;;
15496;SDS011;7850;52.204;5.942;2022-09-21T02:02:12;0.20;;;0.20;;
15496;SDS011;7850;52.204;5.942;2022-09-21T02:03:12;0.20;;;0.20;;
15496;SDS011;7850;52.204;5.942;2022-09-21T02:04:12;0.20;;;0.20;;
15496;SDS011;7850;52.204;5.942;2022-09-21T02:05:12;0.20;;;0.20;;
15496;SDS011;7850;52.204;5.942;2022-09-21T02:06:12;0.20;;;0.20;;
15496;SDS011;7850;52.204;5.942;2022-09-21T02:07:12;0.20;;;0.20;;
15496;SDS011;7850;52.204;5.942;2022-09-21T02:08:12;0.20;;;0.20;;
15496;SDS011;7850;52.204;5.942;2022-09-21T02:09:12;0.20;;;0.20;;
15496;SDS011;7850;52.204;5.942;2022-09-21T02:10:14;0.29;;;0.29;;
15496;SDS011;7850;52.204;5.942;2022-09-21T02:11:12;0.20;;;0.20;;
15496;SDS011;7850;52.204;5.942;2022-09-21T02:12:12;0.20;;;0.20;;
15496;SDS011;7850;52.204;5.942;2022-09-21T02:13:12;0.20;;;0.20;;
15496;SDS011;7850;52.204;5.942;2022-09-21T02:14:14;0.20;;;0.20;;
15496;SDS011;7850;52.204;5.942;2022-09-21T02:15:12;0.20;;;0.20;;
15496;SDS011;7850;52.204;5.942;2022-09-21T02:16:26;0.27;;;0.27;;
15496;SDS011;7850;52.204;5.942;2022-09-21T02:17:15;0.20;;;0.20;;
15496;SDS011;7850;52.204;5.942;2022-09-21T02:18:14;0.20;;;0.20;;
15496;SDS011;7850;52.204;5.942;2022-09-21T02:19:13;0.20;;;0.20;;
15496;SDS011;7850;52.204;5.942;2022-09-21T02:20:14;0.20;;;0.20;;
15496;SDS011;7850;52.204;5.942;2022-09-21T02:21:14;0.20;;;0.20;;
15496;SDS011;7850;52.204;5.942;2022-09-21T02:22:14;0.20;;;0.20;;
15496;SDS011;7850;52.204;5.942;2022-09-21T02:23:14;0.20;;;0.20;;
15496;SDS011;7850;52.204;5.942;2022-09-21T02:24:15;0.20;;;0.20;;
15496;SDS011;7850;52.204;5.942;2022-09-21T02:25:14;0.20;;;0.20;;
15496;SDS011;7850;52.204;5.942;2022-09-21T02:26:14;0.20;;;0.20;;
15496;SDS011;7850;52.204;5.942;2022-09-21T02:27:17;0.20;;;0.20;;
15496;SDS011;7850;52.204;5.942;2022-09-21T02:28:15;0.20;;;0.20;;
15496;SDS011;7850;52.204;5.942;2022-09-21T02:29:15;0.20;;;0.20;;
15496;SDS011;7850;52.204;5.942;2022-09-21T02:30:14;0.20;;;0.20;;
15496;SDS011;7850;52.204;5.942;2022-09-21T02:31:14;0.20;;;0.20;;
15496;SDS011;7850;52.204;5.942;2022-09-21T02:32:16;0.20;;;0.20;;
15496;SDS011;7850;52.204;5.942;2022-09-21T02:33:14;0.20;;;0.20;;
15496;SDS011;7850;52.204;5.942;2022-09-21T02:34:15;0.20;;;0.20;;
15496;SDS011;7850;52.204;5.942;2022-09-21T02:35:15;0.20;;;0.20;;
15496;SDS011;7850;52.204;5.942;2022-09-21T02:36:17;0.20;;;0.20;;
15496;SDS011;7850;52.204;5.942;2022-09-21T02:37:16;0.20;;;0.20;;
15496;SDS011;7850;52.204;5.942;2022-09-21T02:38:16;0.20;;;0.20;;
15496;SDS011;7850;52.204;5.942;2022-09-21T02:39:15;0.20;;;0.20;;
15496;SDS011;7850;52.204;5.942;2022-09-21T02:40:16;0.20;;;0.20;;
15496;SDS011;7850;52.204;5.942;2022-09-21T02:41:15;0.20;;;0.20;;
15496;SDS011;7850;52.204;5.942;2022-09-21T02:42:15;0.20;;;0.20;;
15496;SDS011;7850;52.204;5.942;2022-09-21T02:43:16;0.20;;;0.20;;
15496;SDS011;7850;52.204;5.942;2022-09-21T02:44:16;0.20;;;0.20;;
15496;SDS011;7850;52.204;5.942;2022-09-21T02:45:16;0.20;;;0.20;;
15496;SDS011;7850;52.204;5.942;2022-09-21T02:46:15;0.20;;;0.20;;
15496;SDS011;7850;52.204;5.942;2022-09-21T02:47:15;0.20;;;0.20;;
15496;SDS011;7850;52.204;5.942;2022-09-21T02:48:15;0.20;;;0.20;;
15496;SDS011;7850;52.204;5.942;2022-09-21T02:49:16;0.20;;;0.20;;
15496;SDS011;7850;52.204;5.942;2022-09-21T02:50:16;0.21;;;0.21;;
15496;SDS011;7850;52.204;5.942;2022-09-21T02:51:15;0.20;;;0.20;;
15496;SDS011;7850;52.204;5.942;2022-09-21T02:52:15;0.20;;;0.20;;
15496;SDS011;7850;52.204;5.942;2022-09-21T02:53:17;0.20;;;0.20;;
15496;SDS011;7850;52.204;5.942;2022-09-21T02:54:15;0.20;;;0.20;;
15496;SDS011;7850;52.204;5.942;2022-09-21T02:55:15;0.20;;;0.20;;
15496;SDS011;7850;52.204;5.942;2022-09-21T02:56:15;0.20;;;0.20;;
15496;SDS011;7850;52.204;5.942;2022-09-21T02:57:16;0.21;;;0.21;;
15496;SDS011;7850;52.204;5.942;2022-09-21T02:58:15;0.20;;;0.20;;
15496;SDS011;7850;52.204;5.942;2022-09-21T02:59:15;0.20;;;0.20;;
15496;SDS011;7850;52.204;5.942;2022-09-21T03:00:15;0.20;;;0.20;;
15496;SDS011;7850;52.204;5.942;2022-09-21T03:01:15;0.20;;;0.20;;
15496;SDS011;7850;52.204;5.942;2022-09-21T03:02:15;0.20;;;0.20;;
15496;SDS011;7850;52.204;5.942;2022-09-21T03:03:16;0.20;;;0.20;;
15496;SDS011;7850;52.204;5.942;2022-09-21T03:04:15;0.20;;;0.20;;
15496;SDS011;7850;52.204;5.942;2022-09-21T03:05:15;0.20;;;0.20;;
15496;SDS011;7850;52.204;5.942;2022-09-21T03:06:15;0.20;;;0.20;;
15496;SDS011;7850;52.204;5.942;2022-09-21T03:07:16;0.20;;;0.20;;
15496;SDS011;7850;52.204;5.942;2022-09-21T03:08:16;0.20;;;0.20;;
15496;SDS011;7850;52.204;5.942;2022-09-21T03:09:16;0.20;;;0.20;;
15496;SDS011;7850;52.204;5.942;2022-09-21T03:10:16;0.20;;;0.20;;
15496;SDS011;7850;52.204;5.942;2022-09-21T03:11:16;0.20;;;0.20;;
15496;SDS011;7850;52.204;5.942;2022-09-21T03:12:16;0.25;;;0.25;;
15496;SDS011;7850;52.204;5.942;2022-09-21T03:13:16;0.20;;;0.20;;
15496;SDS011;7850;52.204;5.942;2022-09-21T03:14:16;0.20;;;0.20;;
15496;SDS011;7850;52.204;5.942;2022-09-21T03:15:16;0.20;;;0.20;;
15496;SDS011;7850;52.204;5.942;2022-09-21T03:16:16;0.24;;;0.24;;
15496;SDS011;7850;52.204;5.942;2022-09-21T03:17:16;0.20;;;0.20;;
15496;SDS011;7850;52.204;5.942;2022-09-21T03:18:16;0.27;;;0.27;;
15496;SDS011;7850;52.204;5.942;2022-09-21T03:19:16;0.21;;;0.21;;
15496;SDS011;7850;52.204;5.942;2022-09-21T03:20:16;0.30;;;0.30;;
15496;SDS011;7850;52.204;5.942;2022-09-21T03:21:16;0.30;;;0.30;;
15496;SDS011;7850;52.204;5.942;2022-09-21T03:22:17;0.30;;;0.30;;
15496;SDS011;7850;52.204;5.942;2022-09-21T03:23:17;0.30;;;0.30;;
15496;SDS011;7850;52.204;5.942;2022-09-21T03:24:17;0.24;;;0.24;;
15496;SDS011;7850;52.204;5.942;2022-09-21T03:25:17;0.30;;;0.30;;
15496;SDS011;7850;52.204;5.942;2022-09-21T03:26:17;0.30;;;0.30;;
15496;SDS011;7850;52.204;5.942;2022-09-21T03:27:18;0.30;;;0.30;;
15496;SDS011;7850;52.204;5.942;2022-09-21T03:28:17;0.30;;;0.30;;
15496;SDS011;7850;52.204;5.942;2022-09-21T03:29:17;0.28;;;0.28;;
15496;SDS011;7850;52.204;5.942;2022-09-21T03:30:17;0.30;;;0.30;;
15496;SDS011;7850;52.204;5.942;2022-09-21T03:31:17;0.30;;;0.30;;
15496;SDS011;7850;52.204;5.942;2022-09-21T03:32:17;0.30;;;0.30;;
15496;SDS011;7850;52.204;5.942;2022-09-21T03:33:18;0.30;;;0.30;;
15496;SDS011;7850;52.204;5.942;2022-09-21T03:34:17;0.30;;;0.30;;
15496;SDS011;7850;52.204;5.942;2022-09-21T03:35:18;0.30;;;0.30;;
15496;SDS011;7850;52.204;5.942;2022-09-21T03:36:18;0.30;;;0.30;;
15496;SDS011;7850;52.204;5.942;2022-09-21T03:37:18;0.27;;;0.27;;
15496;SDS011;7850;52.204;5.942;2022-09-21T03:38:18;0.30;;;0.30;;
15496;SDS011;7850;52.204;5.942;2022-09-21T03:39:18;0.20;;;0.20;;
15496;SDS011;7850;52.204;5.942;2022-09-21T03:40:18;0.25;;;0.25;;
15496;SDS011;7850;52.204;5.942;2022-09-21T03:41:18;0.29;;;0.29;;
15496;SDS011;7850;52.204;5.942;2022-09-21T03:42:18;0.30;;;0.30;;
15496;SDS011;7850;52.204;5.942;2022-09-21T03:43:18;0.20;;;0.20;;
15496;SDS011;7850;52.204;5.942;2022-09-21T03:44:18;0.30;;;0.30;;
15496;SDS011;7850;52.204;5.942;2022-09-21T03:45:18;0.26;;;0.26;;
15496;SDS011;7850;52.204;5.942;2022-09-21T03:46:18;0.28;;;0.28;;
15496;SDS011;7850;52.204;5.942;2022-09-21T03:47:18;0.30;;;0.30;;
15496;SDS011;7850;52.204;5.942;2022-09-21T03:48:18;0.26;;;0.26;;
15496;SDS011;7850;52.204;5.942;2022-09-21T03:49:19;0.28;;;0.28;;
15496;SDS011;7850;52.204;5.942;2022-09-21T03:50:19;0.28;;;0.28;;
15496;SDS011;7850;52.204;5.942;2022-09-21T03:51:19;0.23;;;0.23;;
15496;SDS011;7850;52.204;5.942;2022-09-21T03:52:19;0.26;;;0.26;;
15496;SDS011;7850;52.204;5.942;2022-09-21T03:53:19;0.24;;;0.24;;
15496;SDS011;7850;52.204;5.942;2022-09-21T03:54:19;0.20;;;0.20;;
15496;SDS011;7850;52.204;5.942;2022-09-21T03:55:19;0.20;;;0.20;;
15496;SDS011;7850;52.204;5.942;2022-09-21T03:56:19;0.21;;;0.21;;
15496;SDS011;7850;52.204;5.942;2022-09-21T03:57:19;0.27;;;0.27;;
15496;SDS011;7850;52.204;5.942;2022-09-21T03:58:19;0.20;;;0.20;;
15496;SDS011;7850;52.204;5.942;2022-09-21T03:59:19;0.20;;;0.20;;
15496;SDS011;7850;52.204;5.942;2022-09-21T04:00:19;0.30;;;0.30;;
15496;SDS011;7850;52.204;5.942;2022-09-21T04:01:19;0.20;;;0.20;;
15496;SDS011;7850;52.204;5.942;2022-09-21T04:02:19;0.20;;;0.20;;
15496;SDS011;7850;52.204;5.942;2022-09-21T04:03:19;0.20;;;0.20;;
15496;SDS011;7850;52.204;5.942;2022-09-21T04:04:19;0.24;;;0.24;;
15496;SDS011;7850;52.204;5.942;2022-09-21T04:05:20;0.23;;;0.23;;
15496;SDS011;7850;52.204;5.942;2022-09-21T04:06:20;0.20;;;0.20;;
15496;SDS011;7850;52.204;5.942;2022-09-21T04:07:20;0.20;;;0.20;;
15496;SDS011;7850;52.204;5.942;2022-09-21T04:08:20;0.24;;;0.24;;
15496;SDS011;7850;52.204;5.942;2022-09-21T04:09:20;0.20;;;0.20;;
15496;SDS011;7850;52.204;5.942;2022-09-21T04:10:20;0.20;;;0.20;;
15496;SDS011;7850;52.204;5.942;2022-09-21T04:11:20;0.20;;;0.20;;
15496;SDS011;7850;52.204;5.942;2022-09-21T04:12:20;0.20;;;0.20;;
15496;SDS011;7850;52.204;5.942;2022-09-21T04:13:20;0.20;;;0.20;;
15496;SDS011;7850;52.204;5.942;2022-09-21T04:14:20;0.20;;;0.20;;
15496;SDS011;7850;52.204;5.942;2022-09-21T04:15:20;0.20;;;0.20;;
15496;SDS011;7850;52.204;5.942;2022-09-21T04:16:20;0.20;;;0.20;;
15496;SDS011;7850;52.204;5.942;2022-09-21T04:17:20;0.20;;;0.20;;
15496;SDS011;7850;52.204;5.942;2022-09-21T04:18:20;0.25;;;0.25;;
15496;SDS011;7850;52.204;5.942;2022-09-21T04:19:20;0.20;;;0.20;;
15496;SDS011;7850;52.204;5.942;2022-09-21T04:20:21;0.20;;;0.20;;
15496;SDS011;7850;52.204;5.942;2022-09-21T04:21:21;0.20;;;0.20;;
15496;SDS011;7850;52.204;5.942;2022-09-21T04:22:21;0.20;;;0.20;;
15496;SDS011;7850;52.204;5.942;2022-09-21T04:23:21;0.20;;;0.20;;
15496;SDS011;7850;52.204;5.942;2022-09-21T04:24:21;0.20;;;0.20;;
15496;SDS011;7850;52.204;5.942;2022-09-21T04:25:21;0.25;;;0.25;;
15496;SDS011;7850;52.204;5.942;2022-09-21T04:26:22;0.20;;;0.20;;
15496;SDS011;7850;52.204;5.942;2022-09-21T04:27:21;0.20;;;0.20;;
15496;SDS011;7850;52.204;5.942;2022-09-21T04:28:21;0.20;;;0.20;;
15496;SDS011;7850;52.204;5.942;2022-09-21T04:29:21;0.20;;;0.20;;
15496;SDS011;7850;52.204;5.942;2022-09-21T04:30:21;0.20;;;0.20;;
15496;SDS011;7850;52.204;5.942;2022-09-21T04:31:22;0.20;;;0.20;;
15496;SDS011;7850;52.204;5.942;2022-09-21T04:32:21;0.25;;;0.25;;
15496;SDS011;7850;52.204;5.942;2022-09-21T04:33:21;0.20;;;0.20;;
15496;SDS011;7850;52.204;5.942;2022-09-21T04:34:21;0.20;;;0.20;;
15496;SDS011;7850;52.204;5.942;2022-09-21T04:35:21;0.20;;;0.20;;
15496;SDS011;7850;52.204;5.942;2022-09-21T04:36:22;0.20;;;0.20;;
15496;SDS011;7850;52.204;5.942;2022-09-21T04:37:22;0.20;;;0.20;;
15496;SDS011;7850;52.204;5.942;2022-09-21T04:38:22;0.18;;;0.18;;
15496;SDS011;7850;52.204;5.942;2022-09-21T04:39:22;0.20;;;0.20;;
15496;SDS011;7850;52.204;5.942;2022-09-21T04:40:22;0.18;;;0.18;;
15496;SDS011;7850;52.204;5.942;2022-09-21T04:41:22;0.20;;;0.20;;
15496;SDS011;7850;52.204;5.942;2022-09-21T04:42:22;0.17;;;0.17;;
15496;SDS011;7850;52.204;5.942;2022-09-21T04:43:22;0.20;;;0.20;;
15496;SDS011;7850;52.204;5.942;2022-09-21T04:44:22;0.20;;;0.20;;
15496;SDS011;7850;52.204;5.942;2022-09-21T04:45:22;0.20;;;0.20;;
15496;SDS011;7850;52.204;5.942;2022-09-21T04:46:22;0.20;;;0.20;;
15496;SDS011;7850;52.204;5.942;2022-09-21T04:47:23;0.20;;;0.20;;
15496;SDS011;7850;52.204;5.942;2022-09-21T04:48:22;0.20;;;0.20;;
15496;SDS011;7850;52.204;5.942;2022-09-21T04:49:22;0.20;;;0.20;;
15496;SDS011;7850;52.204;5.942;2022-09-21T04:50:23;0.20;;;0.20;;
15496;SDS011;7850;52.204;5.942;2022-09-21T04:51:23;0.20;;;0.20;;
15496;SDS011;7850;52.204;5.942;2022-09-21T04:52:23;0.20;;;0.20;;
15496;SDS011;7850;52.204;5.942;2022-09-21T04:53:23;0.20;;;0.20;;
15496;SDS011;7850;52.204;5.942;2022-09-21T04:54:23;0.20;;;0.20;;
15496;SDS011;7850;52.204;5.942;2022-09-21T04:55:23;0.20;;;0.20;;
15496;SDS011;7850;52.204;5.942;2022-09-21T04:56:23;0.20;;;0.20;;
15496;SDS011;7850;52.204;5.942;2022-09-21T04:57:23;0.20;;;0.20;;
15496;SDS011;7850;52.204;5.942;2022-09-21T04:58:23;0.20;;;0.20;;
15496;SDS011;7850;52.204;5.942;2022-09-21T04:59:23;0.20;;;0.20;;
15496;SDS011;7850;52.204;5.942;2022-09-21T05:00:23;0.20;;;0.20;;
15496;SDS011;7850;52.204;5.942;2022-09-21T05:01:23;0.20;;;0.20;;
15496;SDS011;7850;52.204;5.942;2022-09-21T05:02:23;0.20;;;0.20;;
15496;SDS011;7850;52.204;5.942;2022-09-21T05:03:24;0.20;;;0.20;;
15496;SDS011;7850;52.204;5.942;2022-09-21T05:04:24;0.20;;;0.20;;
15496;SDS011;7850;52.204;5.942;2022-09-21T05:05:24;0.20;;;0.20;;
15496;SDS011;7850;52.204;5.942;2022-09-21T05:06:24;0.10;;;0.10;;
15496;SDS011;7850;52.204;5.942;2022-09-21T05:07:24;0.20;;;0.20;;
15496;SDS011;7850;52.204;5.942;2022-09-21T05:08:24;0.20;;;0.20;;
15496;SDS011;7850;52.204;5.942;2022-09-21T05:09:24;0.20;;;0.20;;
15496;SDS011;7850;52.204;5.942;2022-09-21T05:10:24;0.20;;;0.20;;
15496;SDS011;7850;52.204;5.942;2022-09-21T05:11:24;0.20;;;0.20;;
15496;SDS011;7850;52.204;5.942;2022-09-21T05:12:24;0.20;;;0.20;;
15496;SDS011;7850;52.204;5.942;2022-09-21T05:13:24;0.20;;;0.20;;
15496;SDS011;7850;52.204;5.942;2022-09-21T05:14:24;0.20;;;0.20;;
15496;SDS011;7850;52.204;5.942;2022-09-21T05:15:24;0.20;;;0.20;;
15496;SDS011;7850;52.204;5.942;2022-09-21T05:16:24;0.20;;;0.20;;
15496;SDS011;7850;52.204;5.942;2022-09-21T05:17:24;0.20;;;0.20;;
15496;SDS011;7850;52.204;5.942;2022-09-21T05:18:24;0.20;;;0.20;;
15496;SDS011;7850;52.204;5.942;2022-09-21T05:19:25;0.20;;;0.20;;
15496;SDS011;7850;52.204;5.942;2022-09-21T05:20:25;0.20;;;0.20;;
15496;SDS011;7850;52.204;5.942;2022-09-21T05:21:25;0.30;;;0.30;;
15496;SDS011;7850;52.204;5.942;2022-09-21T05:22:26;0.20;;;0.20;;
15496;SDS011;7850;52.204;5.942;2022-09-21T05:23:25;0.20;;;0.20;;
15496;SDS011;7850;52.204;5.942;2022-09-21T05:24:25;0.20;;;0.20;;
15496;SDS011;7850;52.204;5.942;2022-09-21T05:25:25;0.20;;;0.20;;
15496;SDS011;7850;52.204;5.942;2022-09-21T05:26:25;0.20;;;0.20;;
15496;SDS011;7850;52.204;5.942;2022-09-21T05:27:25;0.20;;;0.20;;
15496;SDS011;7850;52.204;5.942;2022-09-21T05:28:25;0.20;;;0.20;;
15496;SDS011;7850;52.204;5.942;2022-09-21T05:29:25;0.20;;;0.20;;
15496;SDS011;7850;52.204;5.942;2022-09-21T05:30:26;0.20;;;0.20;;
15496;SDS011;7850;52.204;5.942;2022-09-21T05:31:30;0.20;;;0.20;;
15496;SDS011;7850;52.204;5.942;2022-09-21T05:32:26;0.25;;;0.25;;
15496;SDS011;7850;52.204;5.942;2022-09-21T05:33:27;0.20;;;0.20;;
15496;SDS011;7850;52.204;5.942;2022-09-21T05:34:29;0.20;;;0.20;;
15496;SDS011;7850;52.204;5.942;2022-09-21T05:35:27;0.20;;;0.20;;
15496;SDS011;7850;52.204;5.942;2022-09-21T05:36:29;0.20;;;0.20;;
15496;SDS011;7850;52.204;5.942;2022-09-21T05:37:32;0.20;;;0.20;;
15496;SDS011;7850;52.204;5.942;2022-09-21T05:38:26;0.20;;;0.20;;
15496;SDS011;7850;52.204;5.942;2022-09-21T05:39:26;0.20;;;0.20;;
15496;SDS011;7850;52.204;5.942;2022-09-21T05:40:26;0.20;;;0.20;;
15496;SDS011;7850;52.204;5.942;2022-09-21T05:41:26;0.20;;;0.20;;
15496;SDS011;7850;52.204;5.942;2022-09-21T05:42:26;0.20;;;0.20;;
15496;SDS011;7850;52.204;5.942;2022-09-21T05:43:26;0.20;;;0.20;;
15496;SDS011;7850;52.204;5.942;2022-09-21T05:44:26;0.20;;;0.20;;
15496;SDS011;7850;52.204;5.942;2022-09-21T05:45:26;0.20;;;0.20;;
15496;SDS011;7850;52.204;5.942;2022-09-21T05:46:36;0.20;;;0.20;;
15496;SDS011;7850;52.204;5.942;2022-09-21T05:47:30;0.20;;;0.20;;
15496;SDS011;7850;52.204;5.942;2022-09-21T05:48:27;0.20;;;0.20;;
15496;SDS011;7850;52.204;5.942;2022-09-21T05:49:30;0.20;;;0.20;;
15496;SDS011;7850;52.204;5.942;2022-09-21T05:50:29;0.20;;;0.20;;
15496;SDS011;7850;52.204;5.942;2022-09-21T05:51:28;0.20;;;0.20;;
15496;SDS011;7850;52.204;5.942;2022-09-21T05:52:27;0.17;;;0.17;;
15496;SDS011;7850;52.204;5.942;2022-09-21T05:53:32;0.20;;;0.20;;
15496;SDS011;7850;52.204;5.942;2022-09-21T05:54:30;0.20;;;0.20;;
15496;SDS011;7850;52.204;5.942;2022-09-21T05:55:28;0.20;;;0.20;;
15496;SDS011;7850;52.204;5.942;2022-09-21T05:56:30;0.20;;;0.20;;
15496;SDS011;7850;52.204;5.942;2022-09-21T05:57:30;0.20;;;0.20;;
15496;SDS011;7850;52.204;5.942;2022-09-21T05:58:31;0.20;;;0.20;;
15496;SDS011;7850;52.204;5.942;2022-09-21T05:59:31;0.20;;;0.20;;
15496;SDS011;7850;52.204;5.942;2022-09-21T06:00:29;0.20;;;0.20;;
15496;SDS011;7850;52.204;5.942;2022-09-21T06:01:32;0.20;;;0.20;;
15496;SDS011;7850;52.204;5.942;2022-09-21T06:02:34;0.20;;;0.20;;
15496;SDS011;7850;52.204;5.942;2022-09-21T06:03:28;0.20;;;0.20;;
15496;SDS011;7850;52.204;5.942;2022-09-21T06:04:28;0.20;;;0.20;;
15496;SDS011;7850;52.204;5.942;2022-09-21T06:05:28;0.23;;;0.23;;
15496;SDS011;7850;52.204;5.942;2022-09-21T06:06:28;0.25;;;0.25;;